sensor_id;sensor_type;location;lat;lon;timestamp;pressure;altitude;pressure_sealevel;temperature;humidity
78383;BME280;67668;52.294;4.692;2024-03-06T00:00:04;101887.50;;;8.69;88.62
78383;BME280;67668;52.294;4.692;2024-03-06T00:02:30;101890.16;;;8.69;89.41
78383;BME280;67668;52.294;4.692;2024-03-06T00:04:55;101896.38;;;8.68;88.68
78383;BME280;67668;52.294;4.692;2024-03-06T00:07:20;101887.63;;;8.68;89.09
78383;BME280;67668;52.294;4.692;2024-03-06T00:09:46;101892.06;;;8.67;88.88
78383;BME280;67668;52.294;4.692;2024-03-06T00:12:11;101897.34;;;8.67;88.51
78383;BME280;67668;52.294;4.692;2024-03-06T00:14:36;101896.56;;;8.65;88.83
78383;BME280;67668;52.294;4.692;2024-03-06T00:17:02;101903.69;;;8.65;89.02
78383;BME280;67668;52.294;4.692;2024-03-06T00:19:29;101894.06;;;8.64;89.40
78383;BME280;67668;52.294;4.692;2024-03-06T00:21:55;101901.13;;;8.63;89.00
78383;BME280;67668;52.294;4.692;2024-03-06T00:24:20;101907.25;;;8.64;89.48
78383;BME280;67668;52.294;4.692;2024-03-06T00:26:46;101904.69;;;8.62;89.05
78383;BME280;67668;52.294;4.692;2024-03-06T00:29:14;101908.31;;;8.61;89.26
78383;BME280;67668;52.294;4.692;2024-03-06T00:31:46;101917.81;;;8.64;88.90
78383;BME280;67668;52.294;4.692;2024-03-06T00:34:12;101921.38;;;8.63;89.26
78383;BME280;67668;52.294;4.692;2024-03-06T00:36:41;101925.94;;;8.61;89.82
78383;BME280;67668;52.294;4.692;2024-03-06T00:39:06;101919.69;;;8.62;89.47
78383;BME280;67668;52.294;4.692;2024-03-06T00:41:33;101926.78;;;8.61;89.45
78383;BME280;67668;52.294;4.692;2024-03-06T00:43:59;101925.94;;;8.61;89.29
78383;BME280;67668;52.294;4.692;2024-03-06T00:46:24;101931.22;;;8.61;89.65
78383;BME280;67668;52.294;4.692;2024-03-06T00:48:50;101936.56;;;8.59;89.52
78383;BME280;67668;52.294;4.692;2024-03-06T00:51:15;101934.06;;;8.58;89.60
78383;BME280;67668;52.294;4.692;2024-03-06T00:53:40;101935.00;;;8.57;89.40
78383;BME280;67668;52.294;4.692;2024-03-06T00:56:07;101925.38;;;8.56;89.84
78383;BME280;67668;52.294;4.692;2024-03-06T00:58:32;101927.16;;;8.55;89.79
78383;BME280;67668;52.294;4.692;2024-03-06T01:00:57;101927.28;;;8.54;89.18
78383;BME280;67668;52.294;4.692;2024-03-06T01:03:23;101928.13;;;8.54;89.20
78383;BME280;67668;52.294;4.692;2024-03-06T01:05:49;101927.38;;;8.52;88.59
78383;BME280;67668;52.294;4.692;2024-03-06T01:08:14;101931.91;;;8.50;89.14
78383;BME280;67668;52.294;4.692;2024-03-06T01:10:43;101928.56;;;8.48;89.48
78383;BME280;67668;52.294;4.692;2024-03-06T01:13:08;101937.28;;;8.49;89.22
78383;BME280;67668;52.294;4.692;2024-03-06T01:15:36;101948.81;;;8.48;89.44
78383;BME280;67668;52.294;4.692;2024-03-06T01:18:01;101951.53;;;8.46;89.72
78383;BME280;67668;52.294;4.692;2024-03-06T01:20:26;101946.25;;;8.46;89.76
78383;BME280;67668;52.294;4.692;2024-03-06T01:22:52;101945.41;;;8.46;89.75
78383;BME280;67668;52.294;4.692;2024-03-06T01:25:17;101944.56;;;8.45;89.44
78383;BME280;67668;52.294;4.692;2024-03-06T01:27:42;101937.59;;;8.44;89.72
78383;BME280;67668;52.294;4.692;2024-03-06T01:30:08;101937.50;;;8.46;89.66
78383;BME280;67668;52.294;4.692;2024-03-06T01:32:33;101940.97;;;8.46;89.75
78383;BME280;67668;52.294;4.692;2024-03-06T01:34:59;101945.31;;;8.47;90.01
78383;BME280;67668;52.294;4.692;2024-03-06T01:37:24;101951.53;;;8.46;90.17
78383;BME280;67668;52.294;4.692;2024-03-06T01:39:49;101951.66;;;8.45;90.17
78383;BME280;67668;52.294;4.692;2024-03-06T01:42:17;101949.81;;;8.45;90.39
78383;BME280;67668;52.294;4.692;2024-03-06T01:44:42;101947.19;;;8.45;89.90
78383;BME280;67668;52.294;4.692;2024-03-06T01:47:07;101948.03;;;8.46;90.53
78383;BME280;67668;52.294;4.692;2024-03-06T01:49:33;101949.81;;;8.45;90.12
78383;BME280;67668;52.294;4.692;2024-03-06T01:51:58;101943.81;;;8.43;90.22
78383;BME280;67668;52.294;4.692;2024-03-06T01:54:25;101946.47;;;8.43;90.06
78383;BME280;67668;52.294;4.692;2024-03-06T01:56:51;101950.88;;;8.43;90.24
78383;BME280;67668;52.294;4.692;2024-03-06T01:59:17;101949.22;;;8.42;90.28
78383;BME280;67668;52.294;4.692;2024-03-06T02:01:43;101946.56;;;8.42;90.29
78383;BME280;67668;52.294;4.692;2024-03-06T02:04:08;101953.72;;;8.40;90.20
78383;BME280;67668;52.294;4.692;2024-03-06T02:06:40;101953.72;;;8.40;90.02
78383;BME280;67668;52.294;4.692;2024-03-06T02:09:06;101951.19;;;8.38;90.61
78383;BME280;67668;52.294;4.692;2024-03-06T02:11:36;101955.63;;;8.38;89.75
78383;BME280;67668;52.294;4.692;2024-03-06T02:14:02;101957.41;;;8.37;90.11
78383;BME280;67668;52.294;4.692;2024-03-06T02:16:28;101961.00;;;8.36;90.40
78383;BME280;67668;52.294;4.692;2024-03-06T02:18:53;101968.06;;;8.36;90.73
78383;BME280;67668;52.294;4.692;2024-03-06T02:21:21;101972.38;;;8.37;90.28
78383;BME280;67668;52.294;4.692;2024-03-06T02:23:47;101973.44;;;8.34;90.15
78383;BME280;67668;52.294;4.692;2024-03-06T02:26:12;101975.22;;;8.34;90.67
78383;BME280;67668;52.294;4.692;2024-03-06T02:28:37;101967.31;;;8.34;90.33
78383;BME280;67668;52.294;4.692;2024-03-06T02:31:03;101972.59;;;8.34;90.46
78383;BME280;67668;52.294;4.692;2024-03-06T02:33:31;101966.59;;;8.32;90.61
78383;BME280;67668;52.294;4.692;2024-03-06T02:35:56;101974.59;;;8.30;90.80
78383;BME280;67668;52.294;4.692;2024-03-06T02:38:21;101968.56;;;8.28;90.43
78383;BME280;67668;52.294;4.692;2024-03-06T02:40:47;101968.44;;;8.29;90.87
78383;BME280;67668;52.294;4.692;2024-03-06T02:43:13;101968.56;;;8.28;90.81
78383;BME280;67668;52.294;4.692;2024-03-06T02:45:38;101970.25;;;8.29;90.52
78383;BME280;67668;52.294;4.692;2024-03-06T02:48:06;101972.97;;;8.27;90.44
78383;BME280;67668;52.294;4.692;2024-03-06T02:50:31;101969.47;;;8.27;90.34
78383;BME280;67668;52.294;4.692;2024-03-06T02:52:56;101966.78;;;8.28;90.48
78383;BME280;67668;52.294;4.692;2024-03-06T02:55:22;101964.97;;;8.29;90.77
78383;BME280;67668;52.294;4.692;2024-03-06T02:57:48;101964.97;;;8.29;90.39
78383;BME280;67668;52.294;4.692;2024-03-06T03:00:14;101966.78;;;8.28;90.59
78383;BME280;67668;52.294;4.692;2024-03-06T03:02:41;101965.06;;;8.27;90.56
78383;BME280;67668;52.294;4.692;2024-03-06T03:05:06;101970.31;;;8.27;90.72
78383;BME280;67668;52.294;4.692;2024-03-06T03:07:32;101974.75;;;8.27;90.47
78383;BME280;67668;52.294;4.692;2024-03-06T03:09:57;101967.78;;;8.26;90.71
78383;BME280;67668;52.294;4.692;2024-03-06T03:12:22;101969.56;;;8.25;90.87
78383;BME280;67668;52.294;4.692;2024-03-06T03:14:48;101973.25;;;8.23;90.91
78383;BME280;67668;52.294;4.692;2024-03-06T03:17:13;101976.81;;;8.22;90.92
78383;BME280;67668;52.294;4.692;2024-03-06T03:19:40;101978.84;;;8.18;90.54
78383;BME280;67668;52.294;4.692;2024-03-06T03:22:05;101985.03;;;8.17;90.70
78383;BME280;67668;52.294;4.692;2024-03-06T03:24:31;101978.00;;;8.18;90.12
78383;BME280;67668;52.294;4.692;2024-03-06T03:26:56;101977.13;;;8.17;90.51
78383;BME280;67668;52.294;4.692;2024-03-06T03:29:21;101984.19;;;8.17;90.68
78383;BME280;67668;52.294;4.692;2024-03-06T03:31:46;101979.78;;;8.17;90.73
78383;BME280;67668;52.294;4.692;2024-03-06T03:34:12;101984.19;;;8.17;90.58
78383;BME280;67668;52.294;4.692;2024-03-06T03:36:41;101981.56;;;8.17;90.50
78383;BME280;67668;52.294;4.692;2024-03-06T03:39:06;101983.34;;;8.16;90.34
78383;BME280;67668;52.294;4.692;2024-03-06T03:41:42;101982.41;;;8.17;90.54
78383;BME280;67668;52.294;4.692;2024-03-06T03:44:07;101985.03;;;8.17;90.91
78383;BME280;67668;52.294;4.692;2024-03-06T03:46:32;101988.41;;;8.19;90.26
78383;BME280;67668;52.294;4.692;2024-03-06T03:48:58;101990.19;;;8.19;90.33
78383;BME280;67668;52.294;4.692;2024-03-06T03:51:23;101991.06;;;8.19;90.64
78383;BME280;67668;52.294;4.692;2024-03-06T03:53:48;101994.53;;;8.20;90.58
78383;BME280;67668;52.294;4.692;2024-03-06T03:56:16;101993.59;;;8.21;90.72
78383;BME280;67668;52.294;4.692;2024-03-06T03:58:41;101998.13;;;8.19;90.04
78383;BME280;67668;52.294;4.692;2024-03-06T04:01:10;102000.75;;;8.19;90.85
78383;BME280;67668;52.294;4.692;2024-03-06T04:03:36;101999.94;;;8.18;90.97
78383;BME280;67668;52.294;4.692;2024-03-06T04:06:01;101994.66;;;8.18;91.01
78383;BME280;67668;52.294;4.692;2024-03-06T04:08:26;101990.19;;;8.19;91.03
78383;BME280;67668;52.294;4.692;2024-03-06T04:10:52;101991.16;;;8.18;90.30
78383;BME280;67668;52.294;4.692;2024-03-06T04:13:17;101999.09;;;8.18;90.10
78383;BME280;67668;52.294;4.692;2024-03-06T04:15:44;101994.00;;;8.15;90.72
78383;BME280;67668;52.294;4.692;2024-03-06T04:18:09;101998.31;;;8.16;91.00
78383;BME280;67668;52.294;4.692;2024-03-06T04:20:35;101997.47;;;8.15;91.07
78383;BME280;67668;52.294;4.692;2024-03-06T04:23:00;102000.94;;;8.16;90.26
78383;BME280;67668;52.294;4.692;2024-03-06T04:25:25;102007.19;;;8.15;90.92
78383;BME280;67668;52.294;4.692;2024-03-06T04:27:51;102001.16;;;8.13;90.63
78383;BME280;67668;52.294;4.692;2024-03-06T04:30:16;102002.94;;;8.12;90.48
78383;BME280;67668;52.294;4.692;2024-03-06T04:32:41;102011.69;;;8.13;90.90
78383;BME280;67668;52.294;4.692;2024-03-06T04:35:07;102014.44;;;8.11;90.41
78383;BME280;67668;52.294;4.692;2024-03-06T04:37:35;102020.56;;;8.12;90.45
78383;BME280;67668;52.294;4.692;2024-03-06T04:40:00;102021.50;;;8.11;90.64
78383;BME280;67668;52.294;4.692;2024-03-06T04:42:26;102017.09;;;8.11;91.00
78383;BME280;67668;52.294;4.692;2024-03-06T04:44:51;102032.06;;;8.11;90.98
78383;BME280;67668;52.294;4.692;2024-03-06T04:47:16;102025.06;;;8.10;90.93
78383;BME280;67668;52.294;4.692;2024-03-06T04:49:41;102033.91;;;8.09;91.17
78383;BME280;67668;52.294;4.692;2024-03-06T04:52:07;102030.53;;;8.07;90.75
78383;BME280;67668;52.294;4.692;2024-03-06T04:54:34;102033.19;;;8.07;90.70
78383;BME280;67668;52.294;4.692;2024-03-06T04:56:59;102037.59;;;8.06;91.49
78383;BME280;67668;52.294;4.692;2024-03-06T04:59:25;102036.75;;;8.06;91.22
78383;BME280;67668;52.294;4.692;2024-03-06T05:01:51;102037.53;;;8.08;91.46
78383;BME280;67668;52.294;4.692;2024-03-06T05:04:17;102043.53;;;8.10;91.21
78383;BME280;67668;52.294;4.692;2024-03-06T05:06:42;102045.25;;;8.11;91.11
78383;BME280;67668;52.294;4.692;2024-03-06T05:09:07;102048.81;;;8.10;91.39
78383;BME280;67668;52.294;4.692;2024-03-06T05:11:37;102045.25;;;8.11;91.02
78383;BME280;67668;52.294;4.692;2024-03-06T05:14:03;102054.94;;;8.10;91.28
78383;BME280;67668;52.294;4.692;2024-03-06T05:16:28;102055.78;;;8.11;90.87
78383;BME280;67668;52.294;4.692;2024-03-06T05:18:53;102056.63;;;8.11;90.99
78383;BME280;67668;52.294;4.692;2024-03-06T05:21:19;102056.53;;;8.13;91.71
78383;BME280;67668;52.294;4.692;2024-03-06T05:23:45;102056.53;;;8.13;91.17
78383;BME280;67668;52.294;4.692;2024-03-06T05:26:10;102060.00;;;8.13;90.98
78383;BME280;67668;52.294;4.692;2024-03-06T05:28:35;102054.84;;;8.12;91.54
78383;BME280;67668;52.294;4.692;2024-03-06T05:31:00;102067.06;;;8.13;91.58
78383;BME280;67668;52.294;4.692;2024-03-06T05:33:26;102071.59;;;8.11;91.57
78383;BME280;67668;52.294;4.692;2024-03-06T05:35:54;102070.00;;;8.08;91.76
78383;BME280;67668;52.294;4.692;2024-03-06T05:38:19;102073.66;;;8.06;91.06
78383;BME280;67668;52.294;4.692;2024-03-06T05:40:44;102065.75;;;8.06;91.01
78383;BME280;67668;52.294;4.692;2024-03-06T05:43:10;102068.38;;;8.06;91.49
78383;BME280;67668;52.294;4.692;2024-03-06T05:45:35;102068.38;;;8.06;91.80
78383;BME280;67668;52.294;4.692;2024-03-06T05:48:01;102068.38;;;8.06;91.49
78383;BME280;67668;52.294;4.692;2024-03-06T05:50:26;102078.00;;;8.07;91.75
78383;BME280;67668;52.294;4.692;2024-03-06T05:52:51;102080.63;;;8.07;91.07
78383;BME280;67668;52.294;4.692;2024-03-06T05:55:17;102086.84;;;8.06;91.37
78383;BME280;67668;52.294;4.692;2024-03-06T05:57:42;102097.38;;;8.06;91.07
78383;BME280;67668;52.294;4.692;2024-03-06T06:00:14;102096.66;;;8.04;90.69
78383;BME280;67668;52.294;4.692;2024-03-06T06:02:40;102094.09;;;8.02;90.18
78383;BME280;67668;52.294;4.692;2024-03-06T06:05:05;102100.34;;;8.01;90.44
78383;BME280;67668;52.294;4.692;2024-03-06T06:07:30;102102.13;;;8.01;90.17
78383;BME280;67668;52.294;4.692;2024-03-06T06:09:56;102103.91;;;8.00;89.86
78383;BME280;67668;52.294;4.692;2024-03-06T06:12:21;102105.69;;;8.00;89.98
78383;BME280;67668;52.294;4.692;2024-03-06T06:14:46;102111.72;;;8.02;89.93
78383;BME280;67668;52.294;4.692;2024-03-06T06:17:12;102111.81;;;8.00;90.37
78383;BME280;67668;52.294;4.692;2024-03-06T06:19:42;102105.69;;;8.00;89.80
78383;BME280;67668;52.294;4.692;2024-03-06T06:22:07;102112.66;;;8.01;89.92
78383;BME280;67668;52.294;4.692;2024-03-06T06:24:32;102122.34;;;8.00;89.79
78383;BME280;67668;52.294;4.692;2024-03-06T06:26:57;102120.66;;;7.99;89.89
78383;BME280;67668;52.294;4.692;2024-03-06T06:29:23;102128.66;;;7.98;89.52
78383;BME280;67668;52.294;4.692;2024-03-06T06:31:48;102127.88;;;7.96;89.72
78383;BME280;67668;52.294;4.692;2024-03-06T06:34:13;102143.72;;;7.96;89.26
78383;BME280;67668;52.294;4.692;2024-03-06T06:36:38;102144.69;;;7.95;89.61
78383;BME280;67668;52.294;4.692;2024-03-06T06:39:06;102156.16;;;7.94;89.73
78383;BME280;67668;52.294;4.692;2024-03-06T06:41:31;102155.41;;;7.92;89.94
78383;BME280;67668;52.294;4.692;2024-03-06T06:43:56;102163.31;;;7.92;89.86
78383;BME280;67668;52.294;4.692;2024-03-06T06:46:21;102169.50;;;7.91;89.74
78383;BME280;67668;52.294;4.692;2024-03-06T06:48:47;102178.34;;;7.90;90.01
78383;BME280;67668;52.294;4.692;2024-03-06T06:51:14;102182.69;;;7.91;90.53
78383;BME280;67668;52.294;4.692;2024-03-06T06:53:39;102181.00;;;7.90;90.08
78383;BME280;67668;52.294;4.692;2024-03-06T06:56:06;102186.25;;;7.90;90.43
78383;BME280;67668;52.294;4.692;2024-03-06T06:58:33;102188.91;;;7.90;90.32
78383;BME280;67668;52.294;4.692;2024-03-06T07:00:58;102184.59;;;7.89;90.24
78383;BME280;67668;52.294;4.692;2024-03-06T07:03:23;102189.84;;;7.89;90.41
78383;BME280;67668;52.294;4.692;2024-03-06T07:05:54;102197.75;;;7.89;90.41
78383;BME280;67668;52.294;4.692;2024-03-06T07:08:20;102198.69;;;7.88;90.95
78383;BME280;67668;52.294;4.692;2024-03-06T07:10:46;102191.63;;;7.88;90.60
78383;BME280;67668;52.294;4.692;2024-03-06T07:13:11;102197.00;;;7.87;90.78
78383;BME280;67668;52.294;4.692;2024-03-06T07:15:36;102193.50;;;7.86;91.38
78383;BME280;67668;52.294;4.692;2024-03-06T07:18:02;102199.81;;;7.84;91.17
78383;BME280;67668;52.294;4.692;2024-03-06T07:20:28;102202.44;;;7.84;91.38
78383;BME280;67668;52.294;4.692;2024-03-06T07:22:53;102207.81;;;7.82;91.08
78383;BME280;67668;52.294;4.692;2024-03-06T07:25:19;102207.81;;;7.82;91.88
78383;BME280;67668;52.294;4.692;2024-03-06T07:27:45;102209.69;;;7.80;91.39
78383;BME280;67668;52.294;4.692;2024-03-06T07:30:11;102207.03;;;7.80;91.54
78383;BME280;67668;52.294;4.692;2024-03-06T07:32:36;102218.44;;;7.80;91.76
78383;BME280;67668;52.294;4.692;2024-03-06T07:35:01;102221.94;;;7.81;91.51
78383;BME280;67668;52.294;4.692;2024-03-06T07:37:27;102219.28;;;7.81;91.97
78383;BME280;67668;52.294;4.692;2024-03-06T07:39:52;102224.47;;;7.82;91.36
78383;BME280;67668;52.294;4.692;2024-03-06T07:42:17;102221.00;;;7.82;91.45
78383;BME280;67668;52.294;4.692;2024-03-06T07:44:43;102226.16;;;7.84;91.66
78383;BME280;67668;52.294;4.692;2024-03-06T07:47:08;102229.66;;;7.84;91.68
78383;BME280;67668;52.294;4.692;2024-03-06T07:49:33;102235.66;;;7.86;91.57
78383;BME280;67668;52.294;4.692;2024-03-06T07:52:00;102239.16;;;7.87;91.55
78383;BME280;67668;52.294;4.692;2024-03-06T07:54:25;102241.72;;;7.88;91.89
78383;BME280;67668;52.294;4.692;2024-03-06T07:56:50;102246.88;;;7.90;91.85
78383;BME280;67668;52.294;4.692;2024-03-06T07:59:16;102256.56;;;7.89;92.27
78383;BME280;67668;52.294;4.692;2024-03-06T08:01:43;102254.78;;;7.90;92.01
78383;BME280;67668;52.294;4.692;2024-03-06T08:04:08;102260.00;;;7.91;91.58
78383;BME280;67668;52.294;4.692;2024-03-06T08:06:33;102252.94;;;7.92;91.63
78383;BME280;67668;52.294;4.692;2024-03-06T08:09:01;102261.66;;;7.92;91.77
78383;BME280;67668;52.294;4.692;2024-03-06T08:11:27;102268.66;;;7.93;92.04
78383;BME280;67668;52.294;4.692;2024-03-06T08:13:56;102277.34;;;7.95;92.05
78383;BME280;67668;52.294;4.692;2024-03-06T08:16:22;102268.56;;;7.95;91.51
78383;BME280;67668;52.294;4.692;2024-03-06T08:18:47;102275.50;;;7.96;91.67
78383;BME280;67668;52.294;4.692;2024-03-06T08:21:12;102277.22;;;7.97;91.94
78383;BME280;67668;52.294;4.692;2024-03-06T08:23:38;102285.06;;;7.98;91.42
78383;BME280;67668;52.294;4.692;2024-03-06T08:26:03;102280.72;;;7.97;91.81
78383;BME280;67668;52.294;4.692;2024-03-06T08:28:28;102292.00;;;7.99;92.13
78383;BME280;67668;52.294;4.692;2024-03-06T08:30:54;102294.75;;;7.98;91.82
78383;BME280;67668;52.294;4.692;2024-03-06T08:33:19;102300.78;;;8.00;91.55
78383;BME280;67668;52.294;4.692;2024-03-06T08:35:46;102295.50;;;8.00;91.59
78383;BME280;67668;52.294;4.692;2024-03-06T08:38:11;102296.34;;;8.00;91.75
78383;BME280;67668;52.294;4.692;2024-03-06T08:40:36;102298.91;;;8.02;91.50
78383;BME280;67668;52.294;4.692;2024-03-06T08:43:03;102296.16;;;8.03;92.01
78383;BME280;67668;52.294;4.692;2024-03-06T08:45:29;102304.84;;;8.05;91.25
78383;BME280;67668;52.294;4.692;2024-03-06T08:47:54;102296.84;;;8.07;91.23
78383;BME280;67668;52.294;4.692;2024-03-06T08:50:19;102303.81;;;8.08;91.19
78383;BME280;67668;52.294;4.692;2024-03-06T08:52:45;102306.34;;;8.09;91.44
78383;BME280;67668;52.294;4.692;2024-03-06T08:55:11;102307.97;;;8.12;91.52
78383;BME280;67668;52.294;4.692;2024-03-06T08:57:36;102319.28;;;8.14;91.61
78383;BME280;67668;52.294;4.692;2024-03-06T09:00:03;102319.28;;;8.14;91.51
78383;BME280;67668;52.294;4.692;2024-03-06T09:02:28;102317.31;;;8.17;91.77
78383;BME280;67668;52.294;4.692;2024-03-06T09:04:54;102318.91;;;8.20;91.51
78383;BME280;67668;52.294;4.692;2024-03-06T09:07:20;102322.28;;;8.22;91.19
78383;BME280;67668;52.294;4.692;2024-03-06T09:09:49;102328.34;;;8.24;91.10
78383;BME280;67668;52.294;4.692;2024-03-06T09:12:14;102325.53;;;8.27;91.05
78383;BME280;67668;52.294;4.692;2024-03-06T09:14:40;102326.31;;;8.29;91.63
78383;BME280;67668;52.294;4.692;2024-03-06T09:17:06;102326.22;;;8.30;91.02
78383;BME280;67668;52.294;4.692;2024-03-06T09:19:35;102323.22;;;8.37;91.18
78383;BME280;67668;52.294;4.692;2024-03-06T09:22:00;102332.56;;;8.42;91.55
78383;BME280;67668;52.294;4.692;2024-03-06T09:24:25;102333.13;;;8.47;91.28
78383;BME280;67668;52.294;4.692;2024-03-06T09:26:51;102335.41;;;8.53;91.23
78383;BME280;67668;52.294;4.692;2024-03-06T09:29:17;102343.06;;;8.58;91.80
78383;BME280;67668;52.294;4.692;2024-03-06T09:31:42;102347.13;;;8.63;91.66
78383;BME280;67668;52.294;4.692;2024-03-06T09:34:08;102348.63;;;8.67;91.00
78383;BME280;67668;52.294;4.692;2024-03-06T09:36:37;102351.75;;;8.74;90.96
78383;BME280;67668;52.294;4.692;2024-03-06T09:39:02;102356.66;;;8.80;90.84
78383;BME280;67668;52.294;4.692;2024-03-06T09:41:30;102353.63;;;8.86;91.18
78383;BME280;67668;52.294;4.692;2024-03-06T09:43:55;102352.31;;;8.93;91.24
78383;BME280;67668;52.294;4.692;2024-03-06T09:46:20;102350.16;;;9.00;91.78
78383;BME280;67668;52.294;4.692;2024-03-06T09:48:47;102363.94;;;9.05;91.51
78383;BME280;67668;52.294;4.692;2024-03-06T09:51:13;102357.50;;;9.09;90.46
78383;BME280;67668;52.294;4.692;2024-03-06T09:53:39;102355.50;;;9.12;89.98
78383;BME280;67668;52.294;4.692;2024-03-06T09:56:05;102363.91;;;9.19;90.70
78383;BME280;67668;52.294;4.692;2024-03-06T09:58:31;102359.09;;;9.25;90.44
78383;BME280;67668;52.294;4.692;2024-03-06T10:00:59;102365.69;;;9.32;90.10
78383;BME280;67668;52.294;4.692;2024-03-06T10:03:25;102374.66;;;9.44;90.19
78383;BME280;67668;52.294;4.692;2024-03-06T10:05:51;102372.28;;;9.54;90.91
78383;BME280;67668;52.294;4.692;2024-03-06T10:08:19;102371.59;;;9.64;90.50
78383;BME280;67668;52.294;4.692;2024-03-06T10:10:47;102375.50;;;9.71;89.66
78383;BME280;67668;52.294;4.692;2024-03-06T10:13:16;102373.13;;;9.81;89.70
78383;BME280;67668;52.294;4.692;2024-03-06T10:15:49;102375.94;;;9.92;89.66
78383;BME280;67668;52.294;4.692;2024-03-06T10:18:20;102379.78;;;10.01;88.78
78383;BME280;67668;52.294;4.692;2024-03-06T10:20:46;102376.53;;;10.10;88.18
78383;BME280;67668;52.294;4.692;2024-03-06T10:23:12;102375.00;;;10.20;87.00
78383;BME280;67668;52.294;4.692;2024-03-06T10:25:37;102382.41;;;10.27;86.65
78383;BME280;67668;52.294;4.692;2024-03-06T10:28:10;102386.25;;;10.36;86.71
78383;BME280;67668;52.294;4.692;2024-03-06T10:30:37;102383.53;;;10.50;87.37
78383;BME280;67668;52.294;4.692;2024-03-06T10:33:04;102386.09;;;10.64;87.88
78383;BME280;67668;52.294;4.692;2024-03-06T10:35:32;102381.78;;;10.76;86.48
78383;BME280;67668;52.294;4.692;2024-03-06T10:38:01;102380.50;;;10.81;85.17
78383;BME280;67668;52.294;4.692;2024-03-06T10:40:33;102389.41;;;10.93;85.40
78383;BME280;67668;52.294;4.692;2024-03-06T10:42:59;102397.34;;;11.06;85.62
78383;BME280;67668;52.294;4.692;2024-03-06T10:45:39;102395.63;;;11.17;85.22
78383;BME280;67668;52.294;4.692;2024-03-06T10:48:07;102404.53;;;11.29;84.53
78383;BME280;67668;52.294;4.692;2024-03-06T10:50:33;102399.44;;;11.38;83.65
78383;BME280;67668;52.294;4.692;2024-03-06T10:52:59;102395.16;;;11.49;83.23
78383;BME280;67668;52.294;4.692;2024-03-06T10:55:26;102399.47;;;11.62;83.14
78383;BME280;67668;52.294;4.692;2024-03-06T10:57:53;102399.78;;;11.70;82.31
78383;BME280;67668;52.294;4.692;2024-03-06T11:00:20;102401.69;;;11.81;82.74
78383;BME280;67668;52.294;4.692;2024-03-06T11:02:48;102398.34;;;11.90;81.97
78383;BME280;67668;52.294;4.692;2024-03-06T11:05:15;102401.28;;;11.98;81.44
78383;BME280;67668;52.294;4.692;2024-03-06T11:07:41;102406.66;;;12.09;81.01
78383;BME280;67668;52.294;4.692;2024-03-06T11:10:07;102412.88;;;12.21;81.32
78383;BME280;67668;52.294;4.692;2024-03-06T11:12:34;102407.63;;;12.32;80.90
78383;BME280;67668;52.294;4.692;2024-03-06T11:15:08;102418.25;;;12.43;80.09
78383;BME280;67668;52.294;4.692;2024-03-06T11:17:34;102418.78;;;12.48;79.29
78383;BME280;67668;52.294;4.692;2024-03-06T11:33:15;102417.09;;;13.04;77.20
78383;BME280;67668;52.294;4.692;2024-03-06T11:35:43;102421.84;;;13.12;76.12
78383;BME280;67668;52.294;4.692;2024-03-06T11:38:29;102420.28;;;13.20;74.81
78383;BME280;67668;52.294;4.692;2024-03-06T11:40:54;102430.19;;;13.29;75.17
78383;BME280;67668;52.294;4.692;2024-03-06T11:43:26;102427.66;;;13.39;75.43
78383;BME280;67668;52.294;4.692;2024-03-06T11:45:52;102430.56;;;13.47;74.15
78383;BME280;67668;52.294;4.692;2024-03-06T11:48:18;102426.44;;;13.54;73.77
78383;BME280;67668;52.294;4.692;2024-03-06T11:50:45;102424.84;;;13.63;74.01
78383;BME280;67668;52.294;4.692;2024-03-06T11:53:12;102424.75;;;13.75;74.08
78383;BME280;67668;52.294;4.692;2024-03-06T11:55:37;102435.09;;;13.89;74.31
78383;BME280;67668;52.294;4.692;2024-03-06T11:58:03;102425.28;;;14.01;73.53
78383;BME280;67668;52.294;4.692;2024-03-06T12:00:30;102428.16;;;14.09;71.74
78383;BME280;67668;52.294;4.692;2024-03-06T12:02:55;102432.50;;;14.10;70.90
78383;BME280;67668;52.294;4.692;2024-03-06T12:05:22;102427.19;;;14.10;69.98
78383;BME280;67668;52.294;4.692;2024-03-06T12:07:49;102429.34;;;14.16;71.69
78383;BME280;67668;52.294;4.692;2024-03-06T12:10:16;102427.28;;;14.20;70.91
78383;BME280;67668;52.294;4.692;2024-03-06T12:12:41;102433.34;;;14.22;69.75
78383;BME280;67668;52.294;4.692;2024-03-06T12:15:09;102427.94;;;14.33;70.57
78383;BME280;67668;52.294;4.692;2024-03-06T12:17:44;102434.22;;;14.43;70.31
78383;BME280;67668;52.294;4.692;2024-03-06T12:20:13;102429.97;;;14.52;68.14
78383;BME280;67668;52.294;4.692;2024-03-06T12:22:45;102433.16;;;14.66;70.00
78383;BME280;67668;52.294;4.692;2024-03-06T12:25:10;102427.03;;;14.75;69.59
78383;BME280;67668;52.294;4.692;2024-03-06T12:27:36;102427.94;;;14.85;69.21
78383;BME280;67668;52.294;4.692;2024-03-06T12:30:01;102435.19;;;14.94;69.05
78383;BME280;67668;52.294;4.692;2024-03-06T12:32:29;102426.38;;;15.04;67.83
78383;BME280;67668;52.294;4.692;2024-03-06T12:34:56;102426.56;;;15.12;66.24
78383;BME280;67668;52.294;4.692;2024-03-06T12:37:29;102423.63;;;15.15;64.61
78383;BME280;67668;52.294;4.692;2024-03-06T12:39:57;102424.09;;;15.20;65.28
78383;BME280;67668;52.294;4.692;2024-03-06T12:42:23;102431.81;;;15.23;66.14
78383;BME280;67668;52.294;4.692;2024-03-06T12:44:51;102424.78;;;15.22;65.51
78383;BME280;67668;52.294;4.692;2024-03-06T12:47:17;102428.75;;;15.27;63.42
78383;BME280;67668;52.294;4.692;2024-03-06T12:49:42;102431.31;;;15.38;65.71
78383;BME280;67668;52.294;4.692;2024-03-06T12:52:07;102428.97;;;15.45;66.49
78383;BME280;67668;52.294;4.692;2024-03-06T12:54:34;102431.16;;;15.51;61.80
78383;BME280;67668;52.294;4.692;2024-03-06T12:56:59;102430.59;;;15.57;62.90
78383;BME280;67668;52.294;4.692;2024-03-06T12:59:25;102436.25;;;15.64;63.26
78383;BME280;67668;52.294;4.692;2024-03-06T13:01:50;102426.44;;;15.74;63.02
78383;BME280;67668;52.294;4.692;2024-03-06T13:04:16;102428.41;;;15.81;62.04